createdAt,value
2017-12-22T00:00:08.792Z,10.06
2017-12-22T00:02:37.412Z,10.06
2017-12-22T00:05:08.423Z,10.07
2017-12-22T00:07:37.297Z,10.08
2017-12-22T00:10:06.516Z,10.09
2017-12-22T00:12:35.073Z,10.06
2017-12-22T00:15:05.680Z,10.01
2017-12-22T00:17:36.808Z,9.95
2017-12-22T00:20:04.975Z,9.95
2017-12-22T00:22:33.852Z,9.96
2017-12-22T00:25:01.562Z,9.93
2017-12-22T00:27:29.813Z,9.93
2017-12-22T00:29:59.204Z,9.96
2017-12-22T00:32:34.592Z,10.00
2017-12-22T00:35:03.151Z,10.04
2017-12-22T00:37:31.478Z,10.06
2017-12-22T00:40:01.194Z,10.07
2017-12-22T00:42:29.641Z,10.04
2017-12-22T00:44:57.388Z,10.02
2017-12-22T00:47:28.785Z,9.95
2017-12-22T00:50:00.747Z,9.92
2017-12-22T00:52:29.656Z,9.90
2017-12-22T00:55:00.689Z,9.87
2017-12-22T00:57:29.330Z,9.85
2017-12-22T00:59:58.611Z,9.82
2017-12-22T01:02:28.744Z,9.78
2017-12-22T01:04:56.390Z,9.79
2017-12-22T01:07:31.163Z,9.80
2017-12-22T01:09:59.292Z,9.82
2017-12-22T01:12:28.528Z,9.84
2017-12-22T01:14:58.016Z,9.81
2017-12-22T01:20:06.912Z,9.79
2017-12-22T01:22:38.351Z,9.80
2017-12-22T01:25:08.004Z,9.84
2017-12-22T01:27:38.449Z,9.87
2017-12-22T01:30:06.902Z,9.83
2017-12-22T01:32:34.776Z,9.82
2017-12-22T01:35:03.006Z,9.80
2017-12-22T01:37:34.198Z,9.81
2017-12-22T01:40:04.436Z,9.78
2017-12-22T01:42:35.727Z,9.78
2017-12-22T01:45:05.545Z,9.79
2017-12-22T01:47:34.525Z,9.82
2017-12-22T01:50:06.820Z,9.85
2017-12-22T01:52:35.619Z,9.86
2017-12-22T01:55:10.623Z,9.90
2017-12-22T01:57:43.181Z,9.94
2017-12-22T02:00:12.329Z,9.97
2017-12-22T02:02:41.493Z,9.99
2017-12-22T02:05:10.200Z,10.00
2017-12-22T02:07:39.236Z,10.05
2017-12-22T02:10:10.303Z,10.07
2017-12-22T02:12:42.640Z,10.10
2017-12-22T02:15:15.199Z,10.12
2017-12-22T02:17:43.939Z,10.16
2017-12-22T02:20:12.913Z,10.14
2017-12-22T02:22:42.066Z,10.08
2017-12-22T02:25:11.598Z,10.10
2017-12-22T02:27:41.896Z,10.10
2017-12-22T02:30:12.359Z,10.08
2017-12-22T02:32:41.135Z,10.09
2017-12-22T02:35:10.777Z,10.12
2017-12-22T02:37:39.649Z,10.12
2017-12-22T02:40:08.516Z,10.09
2017-12-22T02:42:36.945Z,10.13
2017-12-22T02:45:05.420Z,10.15
2017-12-22T02:47:35.243Z,10.18
2017-12-22T02:50:02.959Z,10.13
2017-12-22T02:52:31.354Z,10.12
2017-12-22T02:54:59.818Z,10.13
2017-12-22T02:57:27.447Z,10.10
2017-12-22T02:59:59.046Z,10.04
2017-12-22T03:02:31.811Z,10.00
2017-12-22T03:05:02.108Z,9.96
2017-12-22T03:07:35.379Z,9.93
2017-12-22T03:10:04.058Z,9.90
2017-12-22T03:12:33.620Z,9.90
2017-12-22T03:15:04.393Z,9.87
2017-12-22T03:17:32.385Z,9.84
2017-12-22T03:20:01.190Z,9.82
2017-12-22T03:22:28.822Z,9.81
2017-12-22T03:24:56.433Z,9.81
2017-12-22T03:27:25.134Z,9.83
2017-12-22T03:29:57.472Z,9.86
2017-12-22T03:32:26.514Z,9.87
2017-12-22T03:34:54.109Z,9.87
2017-12-22T03:37:24.205Z,9.86
2017-12-22T03:39:56.022Z,9.86
2017-12-22T03:42:28.777Z,9.83
2017-12-22T03:44:58.564Z,9.84
2017-12-22T03:47:32.621Z,9.84
2017-12-22T03:50:01.227Z,9.87
2017-12-22T03:52:30.058Z,9.88
2017-12-22T03:55:00.746Z,9.85
2017-12-22T03:57:32.581Z,9.84
2017-12-22T04:00:00.807Z,9.83
2017-12-22T04:02:30.010Z,9.86
2017-12-22T04:04:58.688Z,9.87
2017-12-22T04:07:27.139Z,9.88
2017-12-22T04:09:56.044Z,9.93
2017-12-22T04:12:25.133Z,9.96
2017-12-22T04:14:53.946Z,9.92
2017-12-22T04:17:22.754Z,9.89
2017-12-22T04:19:51.444Z,9.88
2017-12-22T04:22:19.618Z,9.89
2017-12-22T04:24:47.798Z,9.89
2017-12-22T04:27:18.374Z,9.88
2017-12-22T04:29:46.472Z,9.86
2017-12-22T04:32:16.786Z,9.83
2017-12-22T04:34:46.922Z,9.87
2017-12-22T04:37:15.992Z,9.91
2017-12-22T04:39:46.151Z,9.96
2017-12-22T04:42:14.614Z,10.02
2017-12-22T04:44:42.396Z,10.01
2017-12-22T04:47:10.739Z,10.04
2017-12-22T04:49:39.450Z,10.08
2017-12-22T04:52:07.588Z,10.10
2017-12-22T04:54:39.550Z,10.13
2017-12-22T04:57:16.222Z,10.13
2017-12-22T04:59:45.301Z,10.11
2017-12-22T05:02:14.537Z,10.05
2017-12-22T05:04:44.285Z,10.05
2017-12-22T05:07:12.744Z,9.99
2017-12-22T05:09:41.561Z,9.94
2017-12-22T05:12:10.975Z,9.93
2017-12-22T05:14:40.005Z,9.91
2017-12-22T05:17:07.614Z,9.87
2017-12-22T05:19:39.056Z,9.83
2017-12-22T05:22:07.674Z,9.83
2017-12-22T05:24:36.286Z,9.83
2017-12-22T05:27:06.379Z,9.86
2017-12-22T05:29:34.026Z,9.88
2017-12-22T05:32:03.207Z,9.94
2017-12-22T05:34:32.382Z,9.98
2017-12-22T05:37:00.367Z,10.02
2017-12-22T05:39:27.989Z,10.01
2017-12-22T05:41:56.433Z,10.04
2017-12-22T05:44:25.666Z,10.08
2017-12-22T05:46:56.072Z,10.10
2017-12-22T05:49:25.208Z,10.14
2017-12-22T05:51:52.829Z,10.18
2017-12-22T05:54:22.501Z,10.16
2017-12-22T05:56:52.110Z,10.09
2017-12-22T05:59:20.506Z,10.08
2017-12-22T06:01:49.323Z,10.10
2017-12-22T06:04:17.713Z,10.08
2017-12-22T06:06:46.466Z,10.03
2017-12-22T06:09:20.858Z,9.99
2017-12-22T06:11:49.618Z,9.99
2017-12-22T06:14:17.265Z,10.03
2017-12-22T06:16:45.760Z,10.08
2017-12-22T06:19:13.391Z,10.11
2017-12-22T06:21:42.984Z,10.15
2017-12-22T06:24:10.842Z,10.12
2017-12-22T06:26:39.239Z,10.05
2017-12-22T06:29:08.553Z,10.03
2017-12-22T06:31:37.123Z,10.02
2017-12-22T06:34:05.862Z,10.03
2017-12-22T06:36:34.319Z,10.02
2017-12-22T06:39:11.153Z,10.03
2017-12-22T06:41:39.958Z,10.04
2017-12-22T06:44:09.294Z,10.01
2017-12-22T06:46:36.874Z,10.03
2017-12-22T06:49:06.871Z,10.01
2017-12-22T06:51:35.770Z,10.03
2017-12-22T06:54:05.991Z,10.08
2017-12-22T06:56:36.505Z,10.09
2017-12-22T06:59:06.178Z,10.13
2017-12-22T07:01:33.796Z,10.17
2017-12-22T07:04:05.079Z,10.23
2017-12-22T07:06:34.290Z,10.23
2017-12-22T07:09:02.624Z,10.25
2017-12-22T07:11:32.134Z,10.24
2017-12-22T07:13:59.906Z,10.25
2017-12-22T07:16:27.686Z,10.22
2017-12-22T07:18:56.446Z,10.18
2017-12-22T07:21:24.939Z,10.20
2017-12-22T07:23:57.001Z,10.19
2017-12-22T07:26:24.620Z,10.19
2017-12-22T07:28:53.243Z,10.22
2017-12-22T07:31:20.822Z,10.19
2017-12-22T07:33:50.531Z,10.15
2017-12-22T07:36:20.043Z,10.15
2017-12-22T07:38:49.635Z,10.17
2017-12-22T07:41:18.031Z,10.25
2017-12-22T07:43:47.061Z,10.31
2017-12-22T07:46:18.881Z,10.28
2017-12-22T07:48:47.253Z,10.30
2017-12-22T07:51:19.287Z,10.30
2017-12-22T07:53:49.558Z,10.31
2017-12-22T07:56:19.658Z,10.35
2017-12-22T07:58:49.270Z,10.35
2017-12-22T08:01:21.596Z,10.35
2017-12-22T08:03:49.194Z,10.36
2017-12-22T08:06:18.047Z,10.33
2017-12-22T08:08:47.399Z,10.26
2017-12-22T08:11:16.521Z,10.23
2017-12-22T08:13:44.269Z,10.32
2017-12-22T08:16:14.558Z,10.34
2017-12-22T08:18:42.182Z,10.36
2017-12-22T08:21:12.434Z,10.39
2017-12-22T08:23:40.779Z,10.42
2017-12-22T08:26:08.386Z,10.45
2017-12-22T08:28:39.104Z,10.47
2017-12-22T08:31:16.502Z,10.48
2017-12-22T08:33:48.148Z,10.50
2017-12-22T08:36:19.678Z,10.51
2017-12-22T08:38:49.517Z,10.54
2017-12-22T08:41:20.866Z,10.54
2017-12-22T08:43:50.991Z,10.56
2017-12-22T08:46:22.538Z,10.58
2017-12-22T08:48:51.718Z,10.62
2017-12-22T08:51:19.317Z,10.65
2017-12-22T08:53:48.902Z,10.67
2017-12-22T08:56:17.402Z,10.65
2017-12-22T08:58:46.348Z,10.68
2017-12-22T09:01:14.778Z,10.68
2017-12-22T09:03:44.595Z,10.68
2017-12-22T09:06:15.167Z,10.68
2017-12-22T09:08:44.495Z,10.74
2017-12-22T09:11:18.854Z,10.74
2017-12-22T09:13:50.538Z,10.72
2017-12-22T09:16:18.766Z,10.71
2017-12-22T09:18:50.077Z,10.69
2017-12-22T09:21:18.894Z,10.72
2017-12-22T09:23:48.666Z,10.70
2017-12-22T09:26:17.876Z,10.70
2017-12-22T09:28:46.809Z,10.70
2017-12-22T09:31:16.812Z,10.72
2017-12-22T09:33:44.428Z,10.78
2017-12-22T09:36:13.242Z,10.77
2017-12-22T09:38:41.750Z,10.75
2017-12-22T09:41:12.768Z,10.78
2017-12-22T09:43:41.812Z,10.74
2017-12-22T09:46:12.452Z,10.70
2017-12-22T09:48:41.674Z,10.67
2017-12-22T09:51:12.985Z,10.69
2017-12-22T09:53:42.002Z,10.64
2017-12-22T09:56:15.130Z,10.65
2017-12-22T09:58:44.144Z,10.63
2017-12-22T10:01:13.238Z,10.62
2017-12-22T10:03:43.850Z,10.60
2017-12-22T10:06:13.989Z,10.63
2017-12-22T10:08:41.605Z,10.67
2017-12-22T10:11:14.762Z,10.68
2017-12-22T10:13:43.861Z,10.69
2017-12-22T10:16:13.009Z,10.72
2017-12-22T10:18:43.271Z,10.71
2017-12-22T10:21:13.012Z,10.71
2017-12-22T10:23:43.598Z,10.70
2017-12-22T10:26:17.890Z,10.71
2017-12-22T10:28:46.436Z,10.72
2017-12-22T10:31:14.783Z,10.71
2017-12-22T10:33:45.142Z,10.74
2017-12-22T10:36:18.046Z,10.70
2017-12-22T10:38:46.830Z,10.67
2017-12-22T10:41:16.493Z,10.65
2017-12-22T10:43:45.345Z,10.69
2017-12-22T10:46:16.951Z,10.71
2017-12-22T10:48:46.909Z,10.72
2017-12-22T10:51:14.652Z,10.70
2017-12-22T10:53:42.311Z,10.75
2017-12-22T10:56:12.244Z,10.77
2017-12-22T10:58:42.035Z,10.75
2017-12-22T11:01:12.368Z,10.76
2017-12-22T11:03:42.227Z,10.77
2017-12-22T11:06:10.918Z,10.80
2017-12-22T11:08:39.367Z,10.81
2017-12-22T11:11:08.071Z,10.77
2017-12-22T11:13:36.294Z,10.91
2017-12-22T11:16:04.859Z,10.87
2017-12-22T11:18:35.290Z,10.87
2017-12-22T11:21:04.162Z,10.89
2017-12-22T11:23:36.398Z,10.89
2017-12-22T11:26:08.228Z,10.91
2017-12-22T11:28:36.838Z,10.87
2017-12-22T11:31:05.653Z,10.87
2017-12-22T11:33:36.501Z,10.90
2017-12-22T11:36:06.477Z,10.89
2017-12-22T11:38:36.995Z,10.91
2017-12-22T11:41:05.579Z,10.88
2017-12-22T11:43:33.926Z,10.88
2017-12-22T11:46:02.207Z,10.86
2017-12-22T11:48:30.462Z,10.85
2017-12-22T11:50:59.112Z,10.82
2017-12-22T11:53:28.342Z,10.83
2017-12-22T11:55:57.351Z,10.81
2017-12-22T11:58:26.085Z,10.82
2017-12-22T12:01:03.652Z,10.80
2017-12-22T12:03:32.675Z,10.81
2017-12-22T12:06:01.134Z,10.82
2017-12-22T12:08:29.582Z,10.79
2017-12-22T12:10:57.583Z,10.79
2017-12-22T12:13:27.655Z,10.77
2017-12-22T12:15:57.983Z,10.81
2017-12-22T12:18:26.365Z,10.83
2017-12-22T12:20:54.885Z,10.88
2017-12-22T12:23:23.250Z,10.88
2017-12-22T12:25:51.862Z,10.86
2017-12-22T12:28:21.429Z,10.85
2017-12-22T12:30:50.166Z,10.85
2017-12-22T12:33:18.028Z,10.86
2017-12-22T12:35:46.267Z,10.90
2017-12-22T12:38:15.265Z,10.91
2017-12-22T12:40:42.923Z,10.93
2017-12-22T12:43:11.740Z,10.93
2017-12-22T12:45:41.317Z,10.93
2017-12-22T12:48:08.921Z,10.90
2017-12-22T12:50:37.375Z,10.88
2017-12-22T12:53:07.562Z,10.86
2017-12-22T12:55:39.376Z,10.88
2017-12-22T12:58:12.210Z,10.88
2017-12-22T13:00:41.608Z,10.87
2017-12-22T13:03:15.754Z,10.89
2017-12-22T13:05:43.443Z,10.93
2017-12-22T13:08:11.670Z,10.93
2017-12-22T13:10:41.007Z,10.90
2017-12-22T13:13:10.086Z,10.91
2017-12-22T13:15:39.572Z,10.94
2017-12-22T13:18:08.380Z,10.93
2017-12-22T13:20:38.560Z,10.90
2017-12-22T13:23:06.917Z,10.89
2017-12-22T13:25:34.572Z,10.90
2017-12-22T13:28:03.077Z,10.89
2017-12-22T13:30:35.787Z,10.86
2017-12-22T13:33:06.363Z,10.81
2017-12-22T13:35:35.608Z,10.80
2017-12-22T13:38:05.254Z,10.79
2017-12-22T13:40:37.962Z,10.75
2017-12-22T13:43:07.874Z,10.74
2017-12-22T13:45:40.094Z,10.75
2017-12-22T13:48:11.646Z,10.71
2017-12-22T13:50:40.081Z,10.72
2017-12-22T13:53:09.205Z,10.70
2017-12-22T13:55:37.578Z,10.67
2017-12-22T13:58:06.142Z,10.68
2017-12-22T14:00:36.858Z,10.70
2017-12-22T14:03:04.500Z,10.74
2017-12-22T14:05:33.903Z,10.72
2017-12-22T14:08:03.092Z,10.74
2017-12-22T14:10:31.679Z,10.73
2017-12-22T14:13:04.842Z,10.78
2017-12-22T14:15:33.430Z,10.79
2017-12-22T14:18:02.532Z,10.79
2017-12-22T14:20:33.720Z,10.78
2017-12-22T14:23:03.645Z,10.76
2017-12-22T14:25:32.513Z,10.78
2017-12-22T14:28:01.553Z,10.79
2017-12-22T14:30:33.768Z,10.82
2017-12-22T14:33:01.638Z,10.83
2017-12-22T14:35:30.442Z,10.82
2017-12-22T14:38:00.476Z,10.84
2017-12-22T14:40:30.558Z,10.85
2017-12-22T14:43:01.262Z,10.85
2017-12-22T14:45:29.670Z,10.80
2017-12-22T14:48:01.364Z,10.76
2017-12-22T14:50:28.972Z,10.79
2017-12-22T14:52:57.184Z,10.83
2017-12-22T14:55:25.469Z,10.88
2017-12-22T14:57:56.879Z,10.88
2017-12-22T15:00:29.929Z,10.84
2017-12-22T15:03:04.093Z,10.84
2017-12-22T15:05:33.585Z,10.75
2017-12-22T15:08:01.640Z,10.75
2017-12-22T15:10:29.645Z,10.76
2017-12-22T15:12:59.860Z,10.76
2017-12-22T15:15:32.131Z,10.74
2017-12-22T15:18:08.000Z,10.74
2017-12-22T15:20:37.411Z,10.71
2017-12-22T15:23:07.081Z,10.72
2017-12-22T15:25:36.998Z,10.73
2017-12-22T15:28:06.667Z,10.74
2017-12-22T15:30:36.050Z,10.74
2017-12-22T15:33:03.742Z,10.72
2017-12-22T15:35:32.297Z,10.72
2017-12-22T15:38:03.512Z,10.76
2017-12-22T15:40:32.370Z,10.72
2017-12-22T15:43:02.816Z,10.72
2017-12-22T15:45:31.442Z,10.70
2017-12-22T15:47:59.698Z,10.69
2017-12-22T15:50:28.096Z,10.69
2017-12-22T15:52:56.647Z,10.60
2017-12-22T15:55:26.055Z,10.61
2017-12-22T15:57:55.286Z,10.63
2017-12-22T16:00:26.159Z,10.65
2017-12-22T16:02:55.511Z,10.64
2017-12-22T16:05:23.806Z,10.65
2017-12-22T16:07:54.185Z,10.68
2017-12-22T16:10:28.730Z,10.66
2017-12-22T16:12:56.374Z,10.65
2017-12-22T16:15:24.010Z,10.69
2017-12-22T16:17:59.817Z,10.69
2017-12-22T16:20:32.991Z,10.66
2017-12-22T16:23:02.363Z,10.62
2017-12-22T16:25:33.275Z,10.63
2017-12-22T16:28:00.903Z,10.62
2017-12-22T16:30:31.952Z,10.63
2017-12-22T16:33:02.560Z,10.63
2017-12-22T16:35:31.859Z,10.66
2017-12-22T16:38:01.827Z,10.67
2017-12-22T16:40:30.723Z,10.64
2017-12-22T16:43:00.386Z,10.62
2017-12-22T16:45:29.887Z,10.62
2017-12-22T16:47:59.270Z,10.65
2017-12-22T16:50:28.030Z,10.63
2017-12-22T16:52:57.396Z,10.65
2017-12-22T16:55:26.870Z,10.63
2017-12-22T16:57:54.535Z,10.64
2017-12-22T17:00:23.612Z,10.64
2017-12-22T17:02:52.715Z,10.62
2017-12-22T17:05:22.603Z,10.63
2017-12-22T17:07:52.208Z,10.64
2017-12-22T17:10:24.799Z,10.60
2017-12-22T17:12:52.850Z,10.62
2017-12-22T17:15:22.454Z,10.61
2017-12-22T17:17:53.227Z,10.63
2017-12-22T17:20:22.178Z,10.63
2017-12-22T17:22:50.962Z,10.64
2017-12-22T17:25:19.604Z,10.63
2017-12-22T17:27:52.493Z,10.65
2017-12-22T17:30:21.983Z,10.64
2017-12-22T17:32:55.659Z,10.65
2017-12-22T17:35:24.574Z,10.66
2017-12-22T17:37:54.535Z,10.69
2017-12-22T17:40:22.827Z,10.68
2017-12-22T17:42:53.038Z,10.67
2017-12-22T17:45:22.387Z,10.68
2017-12-22T17:50:26.503Z,10.70
2017-12-22T17:52:56.003Z,10.63
2017-12-22T17:55:25.492Z,10.62
2017-12-22T17:57:56.244Z,11.09
2017-12-22T18:00:27.329Z,10.97
2017-12-22T18:02:55.904Z,10.86
2017-12-22T18:05:25.273Z,10.79
2017-12-22T18:07:56.035Z,10.71
2017-12-22T18:10:24.037Z,10.66
2017-12-22T18:12:51.650Z,10.67
2017-12-22T18:15:22.955Z,10.65
2017-12-22T18:17:52.632Z,10.62
2017-12-22T18:20:22.522Z,10.62
2017-12-22T18:22:53.172Z,10.63
2017-12-22T18:25:21.775Z,10.61
2017-12-22T18:27:50.503Z,10.61
2017-12-22T18:30:18.931Z,10.61
2017-12-22T18:32:51.649Z,10.63
2017-12-22T18:35:20.708Z,10.61
2017-12-22T18:37:49.356Z,10.62
2017-12-22T18:40:18.229Z,10.63
2017-12-22T18:42:50.030Z,10.62
2017-12-22T18:45:18.325Z,10.62
2017-12-22T18:47:47.346Z,10.61
2017-12-22T18:50:15.829Z,10.59
2017-12-22T18:52:45.163Z,10.60
2017-12-22T18:55:15.146Z,10.58
2017-12-22T18:57:42.840Z,10.57
2017-12-22T19:00:12.339Z,10.57
2017-12-22T19:02:41.307Z,10.58
2017-12-22T19:05:10.682Z,10.59
2017-12-22T19:07:38.813Z,10.60
2017-12-22T19:10:06.974Z,10.59
2017-12-22T19:12:35.224Z,10.58
2017-12-22T19:15:06.562Z,10.58
2017-12-22T19:17:35.819Z,10.58
2017-12-22T19:20:05.662Z,10.60
2017-12-22T19:22:33.285Z,10.62
2017-12-22T19:25:02.094Z,10.62
2017-12-22T19:27:34.193Z,10.62
2017-12-22T19:30:03.626Z,10.63
2017-12-22T19:32:32.234Z,10.62
2017-12-22T19:35:00.830Z,10.60
2017-12-22T19:37:28.501Z,10.62
2017-12-22T19:39:56.935Z,10.60
2017-12-22T19:42:29.903Z,10.58
2017-12-22T19:44:58.521Z,10.58
2017-12-22T19:47:26.170Z,10.60
2017-12-22T19:49:56.319Z,10.58
2017-12-22T19:52:26.136Z,10.60
2017-12-22T19:54:58.087Z,10.62
2017-12-22T19:57:26.500Z,10.62
2017-12-22T19:59:54.132Z,10.62
2017-12-22T20:02:30.043Z,10.63
2017-12-22T20:04:58.428Z,10.63
2017-12-22T20:07:29.848Z,10.62
2017-12-22T20:09:58.153Z,10.62
2017-12-22T20:12:28.568Z,10.61
2017-12-22T20:15:00.586Z,10.60
2017-12-22T20:17:30.046Z,10.58
2017-12-22T20:19:58.626Z,10.58
2017-12-22T20:22:27.598Z,10.57
2017-12-22T20:24:55.452Z,10.59
2017-12-22T20:27:24.191Z,10.57
2017-12-22T20:29:52.998Z,10.57
2017-12-22T20:32:21.623Z,10.56
2017-12-22T20:34:49.283Z,10.55
2017-12-22T20:37:18.511Z,10.54
2017-12-22T20:39:46.475Z,10.57
2017-12-22T20:42:20.492Z,10.56
2017-12-22T20:44:50.123Z,10.51
2017-12-22T20:47:21.582Z,10.52
2017-12-22T20:49:51.208Z,10.54
2017-12-22T20:52:19.803Z,10.53
2017-12-22T20:54:50.651Z,10.50
2017-12-22T20:57:19.536Z,10.50
2017-12-22T20:59:49.206Z,10.51
2017-12-22T21:02:18.011Z,10.52
2017-12-22T21:04:45.733Z,10.52
2017-12-22T21:07:14.190Z,10.52
2017-12-22T21:09:43.465Z,10.49
2017-12-22T21:12:14.636Z,10.47
2017-12-22T21:17:27.565Z,10.43
2017-12-22T21:19:55.834Z,10.42
2017-12-22T21:22:26.088Z,10.43
2017-12-22T21:24:56.478Z,10.41
2017-12-22T21:27:24.123Z,10.36
2017-12-22T21:29:53.237Z,10.37
2017-12-22T21:32:24.598Z,10.38
2017-12-22T21:34:53.334Z,10.35
2017-12-22T21:37:21.952Z,10.37
2017-12-22T21:39:50.446Z,10.43
2017-12-22T21:42:20.021Z,10.45
2017-12-22T21:44:50.029Z,10.47
2017-12-22T21:47:20.007Z,10.46
2017-12-22T21:49:48.432Z,10.47
2017-12-22T21:52:17.942Z,10.48
2017-12-22T21:54:45.772Z,10.46
2017-12-22T21:57:15.247Z,10.47
2017-12-22T21:59:43.944Z,10.49
2017-12-22T22:02:22.869Z,10.50
2017-12-22T22:04:51.256Z,10.51
2017-12-22T22:07:21.334Z,10.49
2017-12-22T22:09:51.627Z,10.50
2017-12-22T22:12:22.217Z,10.49
2017-12-22T22:14:54.513Z,10.47
2017-12-22T22:17:25.696Z,10.46
2017-12-22T22:19:58.227Z,10.43
2017-12-22T22:22:28.479Z,10.43
2017-12-22T22:25:00.621Z,10.41
2017-12-22T22:27:29.620Z,10.80
2017-12-22T22:30:01.338Z,10.87
2017-12-22T22:32:32.274Z,10.77
2017-12-22T22:35:01.687Z,10.66
2017-12-22T22:37:30.787Z,10.60
2017-12-22T22:40:01.613Z,10.57
2017-12-22T22:42:30.078Z,10.55
2017-12-22T22:44:58.451Z,10.51
2017-12-22T22:47:27.726Z,10.51
2017-12-22T22:49:55.345Z,10.53
2017-12-22T22:52:26.105Z,10.52
2017-12-22T22:54:58.325Z,10.54
2017-12-22T22:57:26.634Z,10.52
2017-12-22T22:59:55.271Z,10.52
2017-12-22T23:02:23.730Z,10.49
2017-12-22T23:04:51.334Z,10.49
2017-12-22T23:07:19.005Z,10.51
2017-12-22T23:09:49.400Z,10.52
2017-12-22T23:12:18.417Z,10.49
2017-12-22T23:14:46.682Z,10.47
2017-12-22T23:17:15.979Z,10.48
2017-12-22T23:19:44.468Z,10.48
2017-12-22T23:22:17.196Z,10.43
2017-12-22T23:24:48.326Z,10.46
2017-12-22T23:27:16.871Z,10.47
2017-12-22T23:29:44.484Z,10.46
2017-12-22T23:32:12.782Z,10.43
2017-12-22T23:34:45.794Z,10.42
2017-12-22T23:37:19.854Z,10.43
2017-12-22T23:39:50.719Z,10.43
2017-12-22T23:42:19.393Z,10.42
2017-12-22T23:44:47.533Z,10.43
2017-12-22T23:47:18.027Z,10.42
2017-12-22T23:49:46.694Z,10.41
2017-12-22T23:52:15.183Z,10.44
2017-12-22T23:54:45.310Z,10.45
2017-12-22T23:57:12.943Z,10.44
2017-12-22T23:59:43.722Z,10.43
